sensor_id;sensor_type;location;lat;lon;timestamp;pressure;altitude;pressure_sealevel;temperature
69545;BMP180;56766;52.260;20.746;2023-04-02T00:00:35;99459.00;;;6.50
69545;BMP180;56766;52.260;20.746;2023-04-02T00:03:22;99456.20;;;6.50
69545;BMP180;56766;52.260;20.746;2023-04-02T00:05:49;99454.00;;;6.50
69545;BMP180;56766;52.260;20.746;2023-04-02T00:08:28;99458.40;;;6.50
69545;BMP180;56766;52.260;20.746;2023-04-02T00:11:01;99458.80;;;6.50
69545;BMP180;56766;52.260;20.746;2023-04-02T00:13:36;99465.00;;;6.50
69545;BMP180;56766;52.260;20.746;2023-04-02T00:16:15;99467.60;;;6.52
69545;BMP180;56766;52.260;20.746;2023-04-02T00:18:49;99467.60;;;6.50
69545;BMP180;56766;52.260;20.746;2023-04-02T00:21:25;99467.80;;;6.50
69545;BMP180;56766;52.260;20.746;2023-04-02T00:23:55;99471.00;;;6.50
69545;BMP180;56766;52.260;20.746;2023-04-02T00:26:51;99472.20;;;6.50
69545;BMP180;56766;52.260;20.746;2023-04-02T00:29:19;99473.00;;;6.50
69545;BMP180;56766;52.260;20.746;2023-04-02T00:31:50;99475.00;;;6.50
69545;BMP180;56766;52.260;20.746;2023-04-02T00:34:32;99470.00;;;6.50
69545;BMP180;56766;52.260;20.746;2023-04-02T00:37:03;99475.20;;;6.50
69545;BMP180;56766;52.260;20.746;2023-04-02T00:39:37;99470.60;;;6.50
69545;BMP180;56766;52.260;20.746;2023-04-02T00:42:11;99477.80;;;6.50
69545;BMP180;56766;52.260;20.746;2023-04-02T00:44:41;99477.80;;;6.46
69545;BMP180;56766;52.260;20.746;2023-04-02T00:47:30;99481.00;;;6.44
69545;BMP180;56766;52.260;20.746;2023-04-02T00:50:18;99480.00;;;6.40
69545;BMP180;56766;52.260;20.746;2023-04-02T00:52:51;99484.20;;;6.40
69545;BMP180;56766;52.260;20.746;2023-04-02T00:58:35;99488.60;;;6.40
69545;BMP180;56766;52.260;20.746;2023-04-02T01:01:03;99488.00;;;6.40
69545;BMP180;56766;52.260;20.746;2023-04-02T01:03:35;99489.00;;;6.40
69545;BMP180;56766;52.260;20.746;2023-04-02T01:06:15;99486.80;;;6.40
69545;BMP180;56766;52.260;20.746;2023-04-02T01:09:24;99493.00;;;6.38
69545;BMP180;56766;52.260;20.746;2023-04-02T01:12:23;99497.40;;;6.30
69545;BMP180;56766;52.260;20.746;2023-04-02T01:14:59;99499.20;;;6.30
69545;BMP180;56766;52.260;20.746;2023-04-02T01:20:52;99504.40;;;6.20
69545;BMP180;56766;52.260;20.746;2023-04-02T01:23:52;99496.40;;;6.10
69545;BMP180;56766;52.260;20.746;2023-04-02T01:26:56;99499.00;;;6.10
69545;BMP180;56766;52.260;20.746;2023-04-02T01:29:39;99506.60;;;6.10
69545;BMP180;56766;52.260;20.746;2023-04-02T01:32:18;99510.80;;;6.10
69545;BMP180;56766;52.260;20.746;2023-04-02T01:34:50;99512.80;;;6.10
69545;BMP180;56766;52.260;20.746;2023-04-02T01:37:48;99518.20;;;6.10
69545;BMP180;56766;52.260;20.746;2023-04-02T01:43:02;99523.60;;;6.08
69545;BMP180;56766;52.260;20.746;2023-04-02T01:45:31;99526.20;;;6.00
69545;BMP180;56766;52.260;20.746;2023-04-02T01:48:32;99533.20;;;6.00
69545;BMP180;56766;52.260;20.746;2023-04-02T01:50:59;99529.00;;;6.00
69545;BMP180;56766;52.260;20.746;2023-04-02T01:53:31;99534.40;;;6.00
69545;BMP180;56766;52.260;20.746;2023-04-02T01:56:01;99536.80;;;6.00
69545;BMP180;56766;52.260;20.746;2023-04-02T01:58:30;99545.80;;;6.00
69545;BMP180;56766;52.260;20.746;2023-04-02T02:01:16;99539.40;;;6.00
69545;BMP180;56766;52.260;20.746;2023-04-02T02:03:44;99546.20;;;5.98
69545;BMP180;56766;52.260;20.746;2023-04-02T02:06:17;99543.80;;;5.96
69545;BMP180;56766;52.260;20.746;2023-04-02T02:11:28;99555.00;;;5.96
69545;BMP180;56766;52.260;20.746;2023-04-02T02:13:59;99550.40;;;5.92
69545;BMP180;56766;52.260;20.746;2023-04-02T02:16:29;99558.60;;;5.90
69545;BMP180;56766;52.260;20.746;2023-04-02T02:19:02;99561.00;;;5.90
69545;BMP180;56766;52.260;20.746;2023-04-02T02:21:40;99560.20;;;5.90
69545;BMP180;56766;52.260;20.746;2023-04-02T02:24:20;99564.60;;;5.90
69545;BMP180;56766;52.260;20.746;2023-04-02T02:27:03;99558.20;;;5.90
69545;BMP180;56766;52.260;20.746;2023-04-02T02:29:37;99567.40;;;5.90
69545;BMP180;56766;52.260;20.746;2023-04-02T02:32:10;99567.80;;;5.82
69545;BMP180;56766;52.260;20.746;2023-04-02T02:34:57;99572.00;;;5.80
69545;BMP180;56766;52.260;20.746;2023-04-02T02:37:37;99571.60;;;5.82
69545;BMP180;56766;52.260;20.746;2023-04-02T02:40:25;99576.80;;;5.80
69545;BMP180;56766;52.260;20.746;2023-04-02T02:43:03;99578.40;;;5.80
69545;BMP180;56766;52.260;20.746;2023-04-02T02:45:39;99579.00;;;5.80
69545;BMP180;56766;52.260;20.746;2023-04-02T02:48:15;99579.80;;;5.80
69545;BMP180;56766;52.260;20.746;2023-04-02T02:50:44;99577.20;;;5.80
69545;BMP180;56766;52.260;20.746;2023-04-02T02:53:22;99583.60;;;5.80
69545;BMP180;56766;52.260;20.746;2023-04-02T02:55:57;99585.80;;;5.80
69545;BMP180;56766;52.260;20.746;2023-04-02T02:58:33;99586.40;;;5.80
69545;BMP180;56766;52.260;20.746;2023-04-02T03:00:59;99592.00;;;5.80
69545;BMP180;56766;52.260;20.746;2023-04-02T03:03:31;99593.00;;;5.80
69545;BMP180;56766;52.260;20.746;2023-04-02T03:06:07;99604.60;;;5.80
69545;BMP180;56766;52.260;20.746;2023-04-02T03:08:51;99599.00;;;5.80
69545;BMP180;56766;52.260;20.746;2023-04-02T03:11:46;99605.40;;;5.80
69545;BMP180;56766;52.260;20.746;2023-04-02T03:14:41;99611.40;;;5.80
69545;BMP180;56766;52.260;20.746;2023-04-02T03:17:58;99614.60;;;5.80
69545;BMP180;56766;52.260;20.746;2023-04-02T03:20:51;99617.80;;;5.80
69545;BMP180;56766;52.260;20.746;2023-04-02T03:23:35;99624.80;;;5.80
69545;BMP180;56766;52.260;20.746;2023-04-02T03:29:21;99623.00;;;5.80
69545;BMP180;56766;52.260;20.746;2023-04-02T03:32:15;99626.60;;;5.80
69545;BMP180;56766;52.260;20.746;2023-04-02T03:34:56;99630.80;;;5.80
69545;BMP180;56766;52.260;20.746;2023-04-02T03:37:33;99631.40;;;5.80
69545;BMP180;56766;52.260;20.746;2023-04-02T03:40:16;99636.40;;;5.80
69545;BMP180;56766;52.260;20.746;2023-04-02T03:42:56;99642.60;;;5.76
69545;BMP180;56766;52.260;20.746;2023-04-02T03:45:32;99644.00;;;5.74
69545;BMP180;56766;52.260;20.746;2023-04-02T03:48:14;99647.00;;;5.70
69545;BMP180;56766;52.260;20.746;2023-04-02T03:51:09;99649.80;;;5.70
69545;BMP180;56766;52.260;20.746;2023-04-02T03:53:38;99657.60;;;5.70
69545;BMP180;56766;52.260;20.746;2023-04-02T03:56:05;99662.20;;;5.60
69545;BMP180;56766;52.260;20.746;2023-04-02T03:58:43;99667.00;;;5.60
69545;BMP180;56766;52.260;20.746;2023-04-02T04:04:05;99669.40;;;5.50
69545;BMP180;56766;52.260;20.746;2023-04-02T04:06:42;99671.80;;;5.50
69545;BMP180;56766;52.260;20.746;2023-04-02T04:09:24;99675.60;;;5.50
69545;BMP180;56766;52.260;20.746;2023-04-02T04:12:09;99677.60;;;5.50
69545;BMP180;56766;52.260;20.746;2023-04-02T04:14:47;99680.60;;;5.42
69545;BMP180;56766;52.260;20.746;2023-04-02T04:20:51;99688.80;;;5.40
69545;BMP180;56766;52.260;20.746;2023-04-02T04:23:34;99692.00;;;5.40
69545;BMP180;56766;52.260;20.746;2023-04-02T04:31:46;99708.00;;;5.30
69545;BMP180;56766;52.260;20.746;2023-04-02T04:34:28;99709.60;;;5.30
69545;BMP180;56766;52.260;20.746;2023-04-02T04:37:03;99714.00;;;5.30
69545;BMP180;56766;52.260;20.746;2023-04-02T04:39:49;99718.20;;;5.26
69545;BMP180;56766;52.260;20.746;2023-04-02T04:42:28;99725.40;;;5.20
69545;BMP180;56766;52.260;20.746;2023-04-02T04:47:53;99729.80;;;5.10
69545;BMP180;56766;52.260;20.746;2023-04-02T04:50:44;99735.80;;;5.06
69545;BMP180;56766;52.260;20.746;2023-04-02T04:53:20;99738.00;;;5.00
69545;BMP180;56766;52.260;20.746;2023-04-02T04:55:59;99740.20;;;4.92
69545;BMP180;56766;52.260;20.746;2023-04-02T04:58:47;99750.20;;;4.90
69545;BMP180;56766;52.260;20.746;2023-04-02T05:04:02;99764.40;;;4.78
69545;BMP180;56766;52.260;20.746;2023-04-02T05:09:13;99765.20;;;4.70
69545;BMP180;56766;52.260;20.746;2023-04-02T05:12:00;99769.80;;;4.70
69545;BMP180;56766;52.260;20.746;2023-04-02T05:14:39;99771.80;;;4.60
69545;BMP180;56766;52.260;20.746;2023-04-02T05:17:27;99773.20;;;4.58
69545;BMP180;56766;52.260;20.746;2023-04-02T05:20:21;99774.60;;;4.52
69545;BMP180;56766;52.260;20.746;2023-04-02T05:23:34;99779.20;;;4.50
69545;BMP180;56766;52.260;20.746;2023-04-02T05:26:15;99782.00;;;4.50
69545;BMP180;56766;52.260;20.746;2023-04-02T05:34:12;99779.00;;;4.50
69545;BMP180;56766;52.260;20.746;2023-04-02T05:36:39;99788.00;;;4.50
69545;BMP180;56766;52.260;20.746;2023-04-02T05:39:10;99793.00;;;4.50
69545;BMP180;56766;52.260;20.746;2023-04-02T05:41:44;99789.00;;;4.48
69545;BMP180;56766;52.260;20.746;2023-04-02T05:44:31;99788.60;;;4.50
69545;BMP180;56766;52.260;20.746;2023-04-02T05:47:13;99797.20;;;4.50
69545;BMP180;56766;52.260;20.746;2023-04-02T05:52:49;99800.40;;;4.40
69545;BMP180;56766;52.260;20.746;2023-04-02T05:55:41;99801.80;;;4.46
69545;BMP180;56766;52.260;20.746;2023-04-02T05:58:34;99815.20;;;4.50
69545;BMP180;56766;52.260;20.746;2023-04-02T06:01:18;99818.80;;;4.50
69545;BMP180;56766;52.260;20.746;2023-04-02T06:03:58;99822.00;;;4.54
69545;BMP180;56766;52.260;20.746;2023-04-02T06:06:47;99829.60;;;4.60
69545;BMP180;56766;52.260;20.746;2023-04-02T06:09:34;99834.00;;;4.60
69545;BMP180;56766;52.260;20.746;2023-04-02T06:12:58;99839.80;;;4.60
69545;BMP180;56766;52.260;20.746;2023-04-02T06:15:32;99848.40;;;4.60
69545;BMP180;56766;52.260;20.746;2023-04-02T06:18:10;99840.80;;;4.56
69545;BMP180;56766;52.260;20.746;2023-04-02T06:20:39;99844.00;;;4.50
69545;BMP180;56766;52.260;20.746;2023-04-02T06:23:17;99850.40;;;4.50
69545;BMP180;56766;52.260;20.746;2023-04-02T06:26:29;99855.80;;;4.50
69545;BMP180;56766;52.260;20.746;2023-04-02T06:31:58;99868.80;;;4.50
69545;BMP180;56766;52.260;20.746;2023-04-02T06:34:30;99872.20;;;4.54
69545;BMP180;56766;52.260;20.746;2023-04-02T06:37:03;99873.60;;;4.60
69545;BMP180;56766;52.260;20.746;2023-04-02T06:39:30;99880.00;;;4.60
69545;BMP180;56766;52.260;20.746;2023-04-02T06:42:04;99879.40;;;4.60
69545;BMP180;56766;52.260;20.746;2023-04-02T06:44:36;99882.60;;;4.60
69545;BMP180;56766;52.260;20.746;2023-04-02T06:47:27;99888.00;;;4.60
69545;BMP180;56766;52.260;20.746;2023-04-02T06:50:13;99888.80;;;4.60
69545;BMP180;56766;52.260;20.746;2023-04-02T06:52:50;99889.40;;;4.60
69545;BMP180;56766;52.260;20.746;2023-04-02T06:57:58;99902.00;;;4.50
69545;BMP180;56766;52.260;20.746;2023-04-02T07:03:22;99903.40;;;4.40
69545;BMP180;56766;52.260;20.746;2023-04-02T07:05:49;99912.40;;;4.40
69545;BMP180;56766;52.260;20.746;2023-04-02T07:08:16;99912.80;;;4.30
69545;BMP180;56766;52.260;20.746;2023-04-02T07:10:43;99909.80;;;4.20
69545;BMP180;56766;52.260;20.746;2023-04-02T07:13:19;99912.00;;;4.20
69545;BMP180;56766;52.260;20.746;2023-04-02T07:15:53;99921.60;;;4.10
69545;BMP180;56766;52.260;20.746;2023-04-02T07:18:31;99923.60;;;4.10
69545;BMP180;56766;52.260;20.746;2023-04-02T07:20:59;99927.00;;;4.10
69545;BMP180;56766;52.260;20.746;2023-04-02T07:23:26;99932.00;;;4.00
69545;BMP180;56766;52.260;20.746;2023-04-02T07:25:54;99934.80;;;4.00
69545;BMP180;56766;52.260;20.746;2023-04-02T07:28:23;99943.60;;;4.00
69545;BMP180;56766;52.260;20.746;2023-04-02T07:30:51;99945.00;;;4.00
69545;BMP180;56766;52.260;20.746;2023-04-02T07:33:24;99952.60;;;4.00
69545;BMP180;56766;52.260;20.746;2023-04-02T07:35:55;99949.40;;;4.00
69545;BMP180;56766;52.260;20.746;2023-04-02T07:38:23;99956.00;;;4.10
69545;BMP180;56766;52.260;20.746;2023-04-02T07:40:50;99957.00;;;4.10
69545;BMP180;56766;52.260;20.746;2023-04-02T07:43:17;99960.40;;;4.10
69545;BMP180;56766;52.260;20.746;2023-04-02T07:45:44;99957.40;;;4.18
69545;BMP180;56766;52.260;20.746;2023-04-02T07:48:13;99960.40;;;4.20
69545;BMP180;56766;52.260;20.746;2023-04-02T07:50:40;99966.80;;;4.20
69545;BMP180;56766;52.260;20.746;2023-04-02T07:53:29;99966.80;;;4.20
69545;BMP180;56766;52.260;20.746;2023-04-02T07:55:59;99974.00;;;4.20
69545;BMP180;56766;52.260;20.746;2023-04-02T07:58:28;99973.80;;;4.20
69545;BMP180;56766;52.260;20.746;2023-04-02T08:00:57;99980.00;;;4.20
69545;BMP180;56766;52.260;20.746;2023-04-02T08:03:25;99981.00;;;4.20
69545;BMP180;56766;52.260;20.746;2023-04-02T08:05:56;99979.00;;;4.20
69545;BMP180;56766;52.260;20.746;2023-04-02T08:08:24;99993.80;;;4.10
69545;BMP180;56766;52.260;20.746;2023-04-02T08:10:51;99992.80;;;4.10
69545;BMP180;56766;52.260;20.746;2023-04-02T08:13:18;99998.60;;;4.10
69545;BMP180;56766;52.260;20.746;2023-04-02T08:15:45;99998.60;;;4.10
69545;BMP180;56766;52.260;20.746;2023-04-02T08:18:12;100003.40;;;4.16
69545;BMP180;56766;52.260;20.746;2023-04-02T08:20:38;100001.80;;;4.30
69545;BMP180;56766;52.260;20.746;2023-04-02T08:23:13;100006.20;;;4.40
69545;BMP180;56766;52.260;20.746;2023-04-02T08:25:44;100005.60;;;4.50
69545;BMP180;56766;52.260;20.746;2023-04-02T08:28:11;100013.60;;;4.70
69545;BMP180;56766;52.260;20.746;2023-04-02T08:30:37;100021.20;;;4.80
69545;BMP180;56766;52.260;20.746;2023-04-02T08:33:04;100036.60;;;4.90
69545;BMP180;56766;52.260;20.746;2023-04-02T08:35:32;100038.60;;;5.00
69545;BMP180;56766;52.260;20.746;2023-04-02T08:37:59;100039.80;;;5.08
69545;BMP180;56766;52.260;20.746;2023-04-02T08:40:35;100045.80;;;5.10
69545;BMP180;56766;52.260;20.746;2023-04-02T08:46:55;100051.40;;;5.00
69545;BMP180;56766;52.260;20.746;2023-04-02T08:49:39;100050.00;;;4.94
69545;BMP180;56766;52.260;20.746;2023-04-02T08:54:49;100055.80;;;4.90
69545;BMP180;56766;52.260;20.746;2023-04-02T09:00:40;100063.80;;;4.80
69545;BMP180;56766;52.260;20.746;2023-04-02T09:03:21;100058.60;;;4.80
69545;BMP180;56766;52.260;20.746;2023-04-02T09:05:55;100067.60;;;4.80
69545;BMP180;56766;52.260;20.746;2023-04-02T09:08:26;100072.00;;;4.90
69545;BMP180;56766;52.260;20.746;2023-04-02T09:13:59;100077.40;;;5.00
69545;BMP180;56766;52.260;20.746;2023-04-02T09:17:02;100074.00;;;5.00
69545;BMP180;56766;52.260;20.746;2023-04-02T09:19:36;100086.60;;;5.10
69545;BMP180;56766;52.260;20.746;2023-04-02T09:24:41;100097.20;;;5.10
69545;BMP180;56766;52.260;20.746;2023-04-02T09:27:19;100098.40;;;5.10
69545;BMP180;56766;52.260;20.746;2023-04-02T09:29:52;100095.00;;;5.10
69545;BMP180;56766;52.260;20.746;2023-04-02T09:33:03;100096.00;;;5.00
69545;BMP180;56766;52.260;20.746;2023-04-02T09:35:54;100095.00;;;5.10
69545;BMP180;56766;52.260;20.746;2023-04-02T09:38:28;100094.60;;;5.30
69545;BMP180;56766;52.260;20.746;2023-04-02T09:41:05;100091.80;;;5.30
69545;BMP180;56766;52.260;20.746;2023-04-02T09:43:36;100099.80;;;5.30
69545;BMP180;56766;52.260;20.746;2023-04-02T09:46:17;100102.60;;;5.38
69545;BMP180;56766;52.260;20.746;2023-04-02T09:48:55;100103.00;;;5.50
69545;BMP180;56766;52.260;20.746;2023-04-02T09:51:30;100107.20;;;5.50
69545;BMP180;56766;52.260;20.746;2023-04-02T09:56:32;100106.00;;;5.60
69545;BMP180;56766;52.260;20.746;2023-04-02T10:01:41;100123.20;;;5.56
69545;BMP180;56766;52.260;20.746;2023-04-02T10:07:37;100133.60;;;5.40
69545;BMP180;56766;52.260;20.746;2023-04-02T10:10:47;100141.40;;;5.30
69545;BMP180;56766;52.260;20.746;2023-04-02T10:16:37;100145.60;;;4.90
69545;BMP180;56766;52.260;20.746;2023-04-02T10:21:53;100152.60;;;4.82
69545;BMP180;56766;52.260;20.746;2023-04-02T10:24:20;100154.60;;;4.80
69545;BMP180;56766;52.260;20.746;2023-04-02T10:35:28;100170.40;;;4.50
69545;BMP180;56766;52.260;20.746;2023-04-02T10:38:23;100174.20;;;4.40
69545;BMP180;56766;52.260;20.746;2023-04-02T10:41:08;100173.40;;;4.30
69545;BMP180;56766;52.260;20.746;2023-04-02T10:44:03;100178.80;;;4.20
69545;BMP180;56766;52.260;20.746;2023-04-02T10:46:49;100190.00;;;4.20
69545;BMP180;56766;52.260;20.746;2023-04-02T10:51:59;100198.40;;;4.10
69545;BMP180;56766;52.260;20.746;2023-04-02T10:54:44;100197.80;;;4.08
69545;BMP180;56766;52.260;20.746;2023-04-02T10:59:52;100212.40;;;4.00
69545;BMP180;56766;52.260;20.746;2023-04-02T11:02:33;100209.60;;;3.90
69545;BMP180;56766;52.260;20.746;2023-04-02T11:05:55;100214.80;;;3.80
69545;BMP180;56766;52.260;20.746;2023-04-02T11:08:42;100223.60;;;3.80
69545;BMP180;56766;52.260;20.746;2023-04-02T11:11:15;100228.60;;;3.80
69545;BMP180;56766;52.260;20.746;2023-04-02T11:14:04;100235.20;;;3.80
69545;BMP180;56766;52.260;20.746;2023-04-02T11:16:36;100237.80;;;3.80
69545;BMP180;56766;52.260;20.746;2023-04-02T11:24:47;100247.80;;;3.72
69545;BMP180;56766;52.260;20.746;2023-04-02T11:27:35;100257.00;;;3.70
69545;BMP180;56766;52.260;20.746;2023-04-02T11:32:46;100258.60;;;3.70
69545;BMP180;56766;52.260;20.746;2023-04-02T11:35:36;100266.80;;;3.70
69545;BMP180;56766;52.260;20.746;2023-04-02T11:40:53;100270.20;;;3.70
69545;BMP180;56766;52.260;20.746;2023-04-02T11:49:35;100283.80;;;4.10
69545;BMP180;56766;52.260;20.746;2023-04-02T11:52:04;100283.80;;;4.16
69545;BMP180;56766;52.260;20.746;2023-04-02T11:54:36;100285.80;;;4.20
69545;BMP180;56766;52.260;20.746;2023-04-02T11:57:42;100278.60;;;4.30
69545;BMP180;56766;52.260;20.746;2023-04-02T12:00:32;100284.60;;;4.48
69545;BMP180;56766;52.260;20.746;2023-04-02T12:03:35;100293.00;;;4.50
69545;BMP180;56766;52.260;20.746;2023-04-02T12:09:35;100303.80;;;4.54
69545;BMP180;56766;52.260;20.746;2023-04-02T12:12:35;100308.60;;;4.50
69545;BMP180;56766;52.260;20.746;2023-04-02T12:18:15;100310.60;;;4.40
69545;BMP180;56766;52.260;20.746;2023-04-02T12:20:53;100309.80;;;4.30
69545;BMP180;56766;52.260;20.746;2023-04-02T12:23:38;100311.40;;;4.20
69545;BMP180;56766;52.260;20.746;2023-04-02T12:26:33;100310.00;;;4.20
69545;BMP180;56766;52.260;20.746;2023-04-02T12:29:31;100323.40;;;4.10
69545;BMP180;56766;52.260;20.746;2023-04-02T12:31:59;100322.00;;;4.06
69545;BMP180;56766;52.260;20.746;2023-04-02T12:34:29;100327.60;;;4.00
69545;BMP180;56766;52.260;20.746;2023-04-02T12:37:03;100329.80;;;4.00
69545;BMP180;56766;52.260;20.746;2023-04-02T12:39:33;100325.60;;;4.00
69545;BMP180;56766;52.260;20.746;2023-04-02T12:42:01;100325.60;;;4.00
69545;BMP180;56766;52.260;20.746;2023-04-02T12:44:30;100329.40;;;4.00
69545;BMP180;56766;52.260;20.746;2023-04-02T12:47:00;100328.20;;;4.00
69545;BMP180;56766;52.260;20.746;2023-04-02T12:49:42;100332.60;;;4.00
69545;BMP180;56766;52.260;20.746;2023-04-02T12:52:18;100330.60;;;4.00
69545;BMP180;56766;52.260;20.746;2023-04-02T12:55:00;100339.60;;;4.00
69545;BMP180;56766;52.260;20.746;2023-04-02T12:57:34;100343.40;;;4.00
69545;BMP180;56766;52.260;20.746;2023-04-02T13:03:19;100357.40;;;4.00
69545;BMP180;56766;52.260;20.746;2023-04-02T13:05:55;100359.60;;;3.90
69545;BMP180;56766;52.260;20.746;2023-04-02T13:08:30;100361.20;;;3.90
69545;BMP180;56766;52.260;20.746;2023-04-02T13:11:04;100370.00;;;3.90
69545;BMP180;56766;52.260;20.746;2023-04-02T13:13:36;100366.20;;;3.88
69545;BMP180;56766;52.260;20.746;2023-04-02T13:18:48;100375.40;;;3.90
69545;BMP180;56766;52.260;20.746;2023-04-02T13:23:43;100377.80;;;3.80
69545;BMP180;56766;52.260;20.746;2023-04-02T13:26:22;100381.80;;;3.80
69545;BMP180;56766;52.260;20.746;2023-04-02T13:29:02;100386.80;;;3.80
69545;BMP180;56766;52.260;20.746;2023-04-02T13:31:31;100385.60;;;3.90
69545;BMP180;56766;52.260;20.746;2023-04-02T13:33:58;100389.00;;;3.92
69545;BMP180;56766;52.260;20.746;2023-04-02T13:36:25;100394.00;;;4.00
69545;BMP180;56766;52.260;20.746;2023-04-02T13:38:55;100395.80;;;4.20
69545;BMP180;56766;52.260;20.746;2023-04-02T13:41:29;100397.20;;;4.30
69545;BMP180;56766;52.260;20.746;2023-04-02T13:44:00;100400.20;;;4.30
69545;BMP180;56766;52.260;20.746;2023-04-02T13:46:31;100395.20;;;4.40
69545;BMP180;56766;52.260;20.746;2023-04-02T13:48:59;100398.80;;;4.40
69545;BMP180;56766;52.260;20.746;2023-04-02T13:51:37;100397.80;;;4.40
69545;BMP180;56766;52.260;20.746;2023-04-02T13:54:32;100404.80;;;4.40
69545;BMP180;56766;52.260;20.746;2023-04-02T13:57:02;100409.00;;;4.40
69545;BMP180;56766;52.260;20.746;2023-04-02T13:59:29;100413.40;;;4.40
69545;BMP180;56766;52.260;20.746;2023-04-02T14:02:13;100414.60;;;4.38
69545;BMP180;56766;52.260;20.746;2023-04-02T14:04:51;100413.60;;;4.30
69545;BMP180;56766;52.260;20.746;2023-04-02T14:14:50;100430.40;;;4.00
69545;BMP180;56766;52.260;20.746;2023-04-02T14:21:23;100433.20;;;4.00
69545;BMP180;56766;52.260;20.746;2023-04-02T14:27:08;100443.20;;;3.88
69545;BMP180;56766;52.260;20.746;2023-04-02T14:29:47;100448.60;;;3.80
69545;BMP180;56766;52.260;20.746;2023-04-02T14:35:36;100462.40;;;3.80
69545;BMP180;56766;52.260;20.746;2023-04-02T14:41:25;100465.60;;;3.70
69545;BMP180;56766;52.260;20.746;2023-04-02T14:44:04;100471.60;;;3.60
69545;BMP180;56766;52.260;20.746;2023-04-02T14:46:36;100473.40;;;3.50
69545;BMP180;56766;52.260;20.746;2023-04-02T14:49:23;100474.80;;;3.42
69545;BMP180;56766;52.260;20.746;2023-04-02T14:52:00;100476.20;;;3.40
69545;BMP180;56766;52.260;20.746;2023-04-02T14:57:41;100481.40;;;3.20
69545;BMP180;56766;52.260;20.746;2023-04-02T15:00:38;100484.40;;;3.20
69545;BMP180;56766;52.260;20.746;2023-04-02T15:06:01;100487.40;;;3.00
69545;BMP180;56766;52.260;20.746;2023-04-02T15:09:10;100494.80;;;3.00
69545;BMP180;56766;52.260;20.746;2023-04-02T15:11:52;100492.60;;;2.96
69545;BMP180;56766;52.260;20.746;2023-04-02T15:14:30;100498.00;;;2.90
69545;BMP180;56766;52.260;20.746;2023-04-02T15:16:58;100507.40;;;2.90
69545;BMP180;56766;52.260;20.746;2023-04-02T15:19:25;100500.80;;;2.82
69545;BMP180;56766;52.260;20.746;2023-04-02T15:24:56;100509.80;;;2.80
69545;BMP180;56766;52.260;20.746;2023-04-02T15:30:36;100523.60;;;2.80
69545;BMP180;56766;52.260;20.746;2023-04-02T15:36:30;100532.60;;;2.70
69545;BMP180;56766;52.260;20.746;2023-04-02T15:39:26;100530.80;;;2.70
69545;BMP180;56766;52.260;20.746;2023-04-02T15:42:22;100537.80;;;2.60
69545;BMP180;56766;52.260;20.746;2023-04-02T15:48:10;100544.20;;;2.60
69545;BMP180;56766;52.260;20.746;2023-04-02T16:08:13;100579.00;;;2.52
69545;BMP180;56766;52.260;20.746;2023-04-02T16:10:41;100583.80;;;2.52
69545;BMP180;56766;52.260;20.746;2023-04-02T16:13:49;100586.40;;;2.60
69545;BMP180;56766;52.260;20.746;2023-04-02T16:16:32;100595.60;;;2.60
69545;BMP180;56766;52.260;20.746;2023-04-02T16:21:57;100599.60;;;2.60
69545;BMP180;56766;52.260;20.746;2023-04-02T16:24:26;100605.60;;;2.50
69545;BMP180;56766;52.260;20.746;2023-04-02T16:27:19;100610.20;;;2.50
69545;BMP180;56766;52.260;20.746;2023-04-02T16:30:26;100613.20;;;2.50
69545;BMP180;56766;52.260;20.746;2023-04-02T16:44:34;100627.60;;;2.54
69545;BMP180;56766;52.260;20.746;2023-04-02T16:50:31;100638.00;;;2.54
69545;BMP180;56766;52.260;20.746;2023-04-02T16:53:38;100639.60;;;2.56
69545;BMP180;56766;52.260;20.746;2023-04-02T16:56:36;100649.00;;;2.60
69545;BMP180;56766;52.260;20.746;2023-04-02T17:00:03;100652.00;;;2.60
69545;BMP180;56766;52.260;20.746;2023-04-02T17:05:32;100653.20;;;2.60
69545;BMP180;56766;52.260;20.746;2023-04-02T17:08:25;100657.60;;;2.60
69545;BMP180;56766;52.260;20.746;2023-04-02T17:11:04;100664.40;;;2.60
69545;BMP180;56766;52.260;20.746;2023-04-02T17:13:42;100664.40;;;2.60
69545;BMP180;56766;52.260;20.746;2023-04-02T17:16:53;100670.60;;;2.60
69545;BMP180;56766;52.260;20.746;2023-04-02T17:19:14;100667.00;;;2.60
69545;BMP180;56766;52.260;20.746;2023-04-02T17:21:49;100673.40;;;2.60
69545;BMP180;56766;52.260;20.746;2023-04-02T17:24:50;100677.40;;;2.60
69545;BMP180;56766;52.260;20.746;2023-04-02T17:27:32;100680.20;;;2.60
69545;BMP180;56766;52.260;20.746;2023-04-02T17:30:40;100681.00;;;2.64
69545;BMP180;56766;52.260;20.746;2023-04-02T17:33:15;100687.60;;;2.68
69545;BMP180;56766;52.260;20.746;2023-04-02T17:39:17;100693.80;;;2.70
69545;BMP180;56766;52.260;20.746;2023-04-02T17:45:27;100696.20;;;2.70
69545;BMP180;56766;52.260;20.746;2023-04-02T17:48:12;100696.20;;;2.70
69545;BMP180;56766;52.260;20.746;2023-04-02T18:03:47;100716.20;;;2.80
69545;BMP180;56766;52.260;20.746;2023-04-02T18:06:31;100722.60;;;2.80
69545;BMP180;56766;52.260;20.746;2023-04-02T18:09:37;100724.00;;;2.80
69545;BMP180;56766;52.260;20.746;2023-04-02T18:12:32;100721.80;;;2.80
69545;BMP180;56766;52.260;20.746;2023-04-02T18:21:14;100727.40;;;2.86
69545;BMP180;56766;52.260;20.746;2023-04-02T18:30:20;100734.20;;;2.90
69545;BMP180;56766;52.260;20.746;2023-04-02T18:33:41;100743.00;;;2.90
69545;BMP180;56766;52.260;20.746;2023-04-02T18:39:22;100738.00;;;2.92
69545;BMP180;56766;52.260;20.746;2023-04-02T18:48:46;100748.80;;;3.00
69545;BMP180;56766;52.260;20.746;2023-04-02T18:51:23;100754.80;;;3.00
69545;BMP180;56766;52.260;20.746;2023-04-02T18:56:39;100756.40;;;3.00
69545;BMP180;56766;52.260;20.746;2023-04-02T18:59:41;100760.80;;;3.00
69545;BMP180;56766;52.260;20.746;2023-04-02T19:05:03;100764.20;;;3.00
69545;BMP180;56766;52.260;20.746;2023-04-02T19:07:38;100769.80;;;3.00
69545;BMP180;56766;52.260;20.746;2023-04-02T19:10:27;100771.60;;;3.00
69545;BMP180;56766;52.260;20.746;2023-04-02T19:12:55;100768.60;;;3.00
69545;BMP180;56766;52.260;20.746;2023-04-02T19:15:37;100777.40;;;3.00
69545;BMP180;56766;52.260;20.746;2023-04-02T19:18:37;100778.20;;;3.00
69545;BMP180;56766;52.260;20.746;2023-04-02T19:24:56;100785.60;;;3.00